LJLJLJPZ

Guest
Details From LJLJ - LJUBLJANA
To LJPZ - PORTOROZ
Flight Number -
Tags decoded
Created
Modified
Stats Distance 69 nm / 128 km
Max Altitude 0 ft / 0 m
Waypoints 4
Social Downloads 0
Likes 0
Share VATSIM

Download

Looking for another format? Having issues loading an existing format? Contact us
Advertisement - Login to hide

Notes

Requested: LJLJ MG ILB LJPZ

Route

LJLJ MG ILB LJPZ

ID Type Via Altitude Latitude Longitude Leg Dist Tot Dist Heading (true) Name
O LJLJ APT - 0 ft / 0 m 46.22368˚ 14.45761˚ - 0 nm - LJUBLJANA
MG NDB - 0 ft / 0 m 46.17323˚ 14.55594˚ 5 nm 5 nm 127° / 127° LJUBLJANA NDB
ILB NDB - 0 ft / 0 m 45.56447˚ 14.17197˚ 39 nm 45 nm 204° / 204° BISTRICA NDB
O LJPZ APT - 0 ft / 0 m 45.47244˚ 13.61568˚ 24 nm 69 nm 257° / 257° PORTOROZ

Altitude Profile

Advertisement - Login to hide

LJLJ

Details ICAO LJLJ (LJU)
Name LJUBLJANA
Region Slovenia
Timezone Europe/Ljubljana (UTC+2.0)
Stats Elevation 1,273 ft / 388 m (AMSL)
Location 46.223685° 14.457608°
Runways 1
Magnetic Variation 3.721° E

METAR

LJLJ 212100Z VRB01KT 9999 -SHRA FEW025 FEW040CB BKN070 22/18 Q1013 RESHRA NOSIG

Decode

TAF

TAF LJLJ 212000Z 2121/2221 24008KT 9999 FEW050 BKN250 TEMPO 2121/2203 VRB15G30KT 5000 TSRA SCT040CB BKN070 BECMG 2121/2124 30005KT BECMG 2201/2204 09005KT 7000 SHRA SCT020TCU BKN035 BECMG 2210/2212 12005KT 9999 NSW SCT040 TEMPO 2212/2218 12010KT

Decode

Departure Runways

ID Width Length Bearing (true) Bearing (mag) Surface Threshold Offset Overrun Length
13 148 ft / 45 m 10,811 ft / 3,295 m 126.47° 122.75° Asphalt 0 ft / 0 m 0 ft / 0 m
31 148 ft / 45 m 10,811 ft / 3,295 m 306.49° 302.77° Asphalt 0 ft / 0 m 0 ft / 0 m

LJPZ

Details ICAO LJPZ (POW)
Name PORTOROZ
Region Slovenia
Timezone Europe/Ljubljana (UTC+2.0)
Stats Elevation 7 ft / 2 m (AMSL)
Location 45.472445° 13.615681°
Runways 1
Magnetic Variation 3.502° E

METAR

LJPZ 212100Z AUTO 12004KT 9999 FEW070/// 22/17 Q1012

Decode

TAF

Not found

Destination Runways

ID Width Length Bearing (true) Bearing (mag) Surface Threshold Offset Overrun Length
15 98 ft / 30 m 3,939 ft / 1,201 m 151.28° 147.78° Asphalt 0 ft / 0 m 0 ft / 0 m
33 98 ft / 30 m 3,939 ft / 1,201 m 331.29° 327.79° Asphalt 751 ft / 229 m 0 ft / 0 m

Popular Alternatives